createdAt,value
2022-10-11T00:00:20.767Z,13.41
2022-10-11T00:02:54.508Z,13.38
2022-10-11T00:05:28.848Z,13.32
2022-10-11T00:08:02.455Z,13.30
2022-10-11T00:10:36.422Z,13.31
2022-10-11T00:13:10.358Z,13.26
2022-10-11T00:15:45.641Z,13.27
2022-10-11T00:18:19.199Z,13.32
2022-10-11T00:20:52.842Z,13.31
2022-10-11T00:23:26.512Z,13.30
2022-10-11T00:26:01.021Z,13.29
2022-10-11T00:28:35.782Z,13.26
2022-10-11T00:31:12.468Z,13.17
2022-10-11T00:33:46.264Z,13.17
2022-10-11T00:36:20.177Z,13.19
2022-10-11T00:38:54.148Z,13.03
2022-10-11T00:41:27.869Z,13.18
2022-10-11T00:44:16.400Z,13.12
2022-10-11T00:46:56.206Z,13.16
2022-10-11T00:49:37.174Z,13.16
2022-10-11T00:52:18.904Z,13.12
2022-10-11T00:54:52.963Z,13.08
2022-10-11T00:57:29.658Z,13.11
2022-10-11T01:00:03.862Z,13.07
2022-10-11T01:02:39.982Z,13.11
2022-10-11T01:05:29.754Z,13.19
2022-10-11T01:08:04.958Z,13.11
2022-10-11T01:10:38.723Z,13.11
2022-10-11T01:13:21.547Z,13.22
2022-10-11T01:16:04.885Z,13.20
2022-10-11T01:18:50.376Z,13.19
2022-10-11T01:21:40.623Z,13.11
2022-10-11T01:24:57.172Z,13.16
2022-10-11T01:27:55.895Z,13.08
2022-10-11T01:30:33.392Z,13.11
2022-10-11T01:33:20.255Z,13.17
2022-10-11T01:36:03.946Z,13.08
2022-10-11T01:38:44.676Z,13.20
2022-10-11T01:41:23.945Z,13.22
2022-10-11T01:44:01.664Z,13.25
2022-10-11T01:46:37.983Z,13.13
2022-10-11T01:49:11.764Z,13.13
2022-10-11T01:51:50.060Z,13.19
2022-10-11T01:55:03.808Z,13.02
2022-10-11T01:57:49.318Z,13.08
2022-10-11T02:00:24.862Z,13.08
2022-10-11T02:03:19.412Z,13.05
2022-10-11T02:05:59.356Z,13.03
2022-10-11T02:08:40.575Z,12.99
2022-10-11T02:11:21.514Z,12.85
2022-10-11T02:14:01.098Z,12.76
2022-10-11T02:16:39.447Z,12.76
2022-10-11T02:19:20.831Z,12.72
2022-10-11T02:21:59.607Z,12.79
2022-10-11T02:24:36.294Z,12.78
2022-10-11T02:27:12.546Z,12.79
2022-10-11T02:29:48.053Z,12.87
2022-10-11T02:32:23.624Z,12.92
2022-10-11T02:35:02.046Z,12.90
2022-10-11T02:37:43.206Z,13.00
2022-10-11T02:40:22.990Z,13.04
2022-10-11T02:43:01.572Z,13.06
2022-10-11T02:45:39.728Z,13.03
2022-10-11T02:48:13.524Z,13.04
2022-10-11T02:50:49.354Z,13.04
2022-10-11T02:53:22.781Z,13.11
2022-10-11T02:55:57.053Z,13.12
2022-10-11T02:58:30.545Z,13.11
2022-10-11T03:01:04.440Z,13.17
2022-10-11T03:03:38.210Z,13.14
2022-10-11T03:06:12.860Z,13.24
2022-10-11T03:08:46.365Z,13.27
2022-10-11T03:11:20.260Z,13.25
2022-10-11T03:13:53.827Z,13.29
2022-10-11T03:16:27.642Z,13.34
2022-10-11T03:19:01.170Z,13.38
2022-10-11T03:21:36.269Z,13.37
2022-10-11T03:24:09.992Z,13.32
2022-10-11T03:26:43.677Z,13.36
2022-10-11T03:29:17.235Z,13.36
2022-10-11T03:31:51.014Z,13.30
2022-10-11T03:34:24.574Z,13.30
2022-10-11T03:36:59.803Z,13.32
2022-10-11T03:39:33.377Z,13.26
2022-10-11T03:42:07.228Z,13.23
2022-10-11T03:44:41.964Z,13.07
2022-10-11T03:47:16.088Z,12.96
2022-10-11T03:49:49.630Z,12.96
2022-10-11T03:52:24.730Z,12.82
2022-10-11T03:54:58.394Z,12.65
2022-10-11T03:57:32.099Z,12.53
2022-10-11T04:00:07.356Z,12.42
2022-10-11T04:02:41.313Z,12.35
2022-10-11T04:05:14.916Z,12.27
2022-10-11T04:07:50.111Z,12.30
2022-10-11T04:10:23.948Z,12.21
2022-10-11T04:12:57.803Z,12.18
2022-10-11T04:15:31.381Z,12.13
2022-10-11T04:18:05.291Z,12.04
2022-10-11T04:20:38.971Z,12.18
2022-10-11T04:23:14.295Z,12.04
2022-10-11T04:25:48.545Z,12.17
2022-10-11T04:28:22.544Z,12.15
2022-10-11T04:30:56.210Z,12.09
2022-10-11T04:33:30.148Z,12.25
2022-10-11T04:36:03.994Z,12.23
2022-10-11T04:38:39.652Z,12.21
2022-10-11T04:41:15.623Z,12.28
2022-10-11T04:43:49.877Z,12.31
2022-10-11T04:46:23.459Z,12.36
2022-10-11T04:48:57.472Z,12.39
2022-10-11T04:51:31.239Z,12.38
2022-10-11T04:54:06.472Z,12.40
2022-10-11T04:56:39.989Z,12.31
2022-10-11T04:59:13.731Z,12.37
2022-10-11T05:01:47.405Z,12.36
2022-10-11T05:04:21.240Z,12.52
2022-10-11T05:06:54.793Z,12.57
2022-10-11T05:09:30.270Z,12.63
2022-10-11T05:12:04.745Z,12.68
2022-10-11T05:14:38.753Z,12.48
2022-10-11T05:17:12.414Z,12.47
2022-10-11T05:19:46.047Z,12.38
2022-10-11T05:22:19.676Z,12.39
2022-10-11T05:24:54.827Z,12.44
2022-10-11T05:27:29.449Z,12.45
2022-10-11T05:30:03.547Z,12.41
2022-10-11T05:32:37.275Z,12.35
2022-10-11T05:35:11.448Z,12.34
2022-10-11T05:37:45.145Z,12.33
2022-10-11T05:40:20.476Z,12.31
2022-10-11T05:42:53.241Z,12.34
2022-10-11T05:45:27.254Z,12.31
2022-10-11T05:48:00.882Z,12.24
2022-10-11T05:50:34.591Z,12.07
2022-10-11T05:53:08.776Z,12.01
2022-10-11T05:55:45.532Z,11.94
2022-10-11T05:58:19.183Z,11.84
2022-10-11T06:00:54.803Z,11.86
2022-10-11T06:03:28.116Z,11.80
2022-10-11T06:06:04.647Z,11.59
2022-10-11T06:08:38.365Z,11.53
2022-10-11T06:11:15.844Z,11.52
2022-10-11T06:13:49.390Z,11.56
2022-10-11T06:16:23.185Z,11.57
2022-10-11T06:18:57.733Z,11.52
2022-10-11T06:21:31.485Z,11.39
2022-10-11T06:24:05.559Z,11.26
2022-10-11T06:26:41.171Z,11.23
2022-10-11T06:29:14.798Z,11.23
2022-10-11T06:31:49.221Z,11.10
2022-10-11T06:34:23.022Z,11.06
2022-10-11T06:36:56.900Z,11.10
2022-10-11T06:39:30.568Z,11.02
2022-10-11T06:42:05.890Z,10.99
2022-10-11T06:44:41.582Z,10.99
2022-10-11T06:47:15.328Z,11.13
2022-10-11T06:49:48.957Z,11.19
2022-10-11T06:52:22.831Z,11.17
2022-10-11T06:54:56.436Z,11.27
2022-10-11T06:57:31.969Z,11.36
2022-10-11T07:00:11.700Z,11.41
2022-10-11T07:02:46.307Z,11.36
2022-10-11T07:05:19.945Z,11.32
2022-10-11T07:07:54.089Z,11.41
2022-10-11T07:10:27.741Z,11.56
2022-10-11T07:13:03.106Z,11.66
2022-10-11T07:15:41.390Z,11.80
2022-10-11T07:18:16.143Z,12.00
2022-10-11T07:20:49.706Z,12.12
2022-10-11T07:23:23.583Z,12.26
2022-10-11T07:25:57.128Z,12.30
2022-10-11T07:28:32.716Z,12.45
2022-10-11T07:31:07.497Z,12.53
2022-10-11T07:33:41.141Z,12.70
2022-10-11T07:36:15.768Z,12.89
2022-10-11T07:38:50.831Z,13.50
2022-10-11T07:41:24.342Z,14.33
2022-10-11T07:43:59.584Z,14.69
2022-10-11T07:46:34.369Z,14.63
2022-10-11T07:49:08.085Z,14.50
2022-10-11T07:51:41.650Z,14.60
2022-10-11T07:54:15.509Z,14.74
2022-10-11T07:56:49.120Z,15.00
2022-10-11T07:59:24.425Z,15.10
2022-10-11T08:01:58.085Z,15.02
2022-10-11T08:04:31.890Z,15.05
2022-10-11T08:07:05.791Z,14.95
2022-10-11T08:09:39.650Z,14.84
2022-10-11T08:12:13.233Z,14.73
2022-10-11T08:14:48.355Z,14.69
2022-10-11T08:17:21.946Z,14.67
2022-10-11T08:19:56.042Z,14.64
2022-10-11T08:22:29.598Z,14.69
2022-10-11T08:25:03.779Z,14.64
2022-10-11T08:27:37.698Z,14.67
2022-10-11T08:30:14.662Z,14.91
2022-10-11T08:32:48.248Z,15.21
2022-10-11T08:35:22.057Z,15.34
2022-10-11T08:37:55.711Z,15.47
2022-10-11T08:40:32.786Z,15.96
2022-10-11T08:43:14.869Z,16.50
2022-10-11T08:45:55.451Z,16.38
2022-10-11T08:48:36.528Z,16.38
2022-10-11T08:51:20.044Z,16.32
2022-10-11T08:53:59.821Z,16.31
2022-10-11T08:56:40.193Z,16.15
2022-10-11T08:59:28.213Z,16.33
2022-10-11T09:02:17.474Z,16.51
2022-10-11T09:04:53.783Z,16.78
2022-10-11T09:07:41.654Z,17.17
2022-10-11T09:10:40.142Z,18.05
2022-10-11T09:13:31.792Z,18.72
2022-10-11T09:16:16.911Z,19.06
2022-10-11T09:19:27.421Z,18.70
2022-10-11T09:22:09.906Z,18.24
2022-10-11T09:25:09.450Z,18.23
2022-10-11T09:28:02.496Z,18.34
2022-10-11T09:30:42.120Z,18.71
2022-10-11T09:33:20.524Z,19.03
2022-10-11T09:35:58.571Z,18.89
2022-10-11T09:38:42.206Z,18.79
2022-10-11T09:41:23.660Z,18.77
2022-10-11T09:43:57.241Z,18.74
2022-10-11T09:46:36.704Z,18.38
2022-10-11T09:49:14.851Z,18.09
2022-10-11T09:51:55.162Z,18.06
2022-10-11T09:54:43.775Z,18.27
2022-10-11T09:57:26.214Z,17.90
2022-10-11T10:00:03.207Z,17.92
2022-10-11T10:02:42.773Z,17.91
2022-10-11T10:05:22.215Z,18.21
2022-10-11T10:08:23.540Z,18.22
2022-10-11T10:11:03.325Z,17.60
2022-10-11T10:13:44.969Z,17.67
2022-10-11T10:16:25.601Z,17.76
2022-10-11T10:19:02.126Z,17.86
2022-10-11T10:21:38.556Z,17.61
2022-10-11T10:24:21.845Z,17.72
2022-10-11T10:27:17.197Z,18.16
2022-10-11T10:30:21.080Z,18.12
2022-10-11T10:33:00.174Z,18.43
2022-10-11T10:35:37.183Z,18.70
2022-10-11T10:38:19.875Z,18.69
2022-10-11T10:41:00.445Z,18.62
2022-10-11T10:43:36.336Z,18.38
2022-10-11T10:46:32.697Z,18.29
2022-10-11T10:52:43.182Z,18.15
2022-10-11T10:55:28.853Z,18.32
2022-10-11T10:58:23.424Z,18.15
2022-10-11T11:01:03.990Z,18.04
2022-10-11T11:03:46.560Z,17.86
2022-10-11T11:06:31.558Z,17.90
2022-10-11T11:09:27.017Z,17.75
2022-10-11T11:12:15.608Z,17.97
2022-10-11T11:14:59.749Z,18.14
2022-10-11T11:17:47.563Z,18.26
2022-10-11T11:20:35.446Z,18.69
2022-10-11T11:23:17.504Z,18.76
2022-10-11T11:26:00.906Z,18.88
2022-10-11T11:29:12.052Z,18.94
2022-10-11T11:32:10.183Z,19.48
2022-10-11T11:34:48.208Z,19.71
2022-10-11T11:37:29.646Z,19.74
2022-10-11T11:40:09.087Z,19.64
2022-10-11T11:42:47.450Z,18.93
2022-10-11T11:45:25.465Z,18.98
2022-10-11T11:48:06.092Z,19.04
2022-10-11T11:50:43.789Z,19.08
2022-10-11T11:53:20.792Z,19.15
2022-10-11T11:56:02.442Z,19.42
2022-10-11T11:58:44.990Z,19.13
2022-10-11T12:01:31.620Z,18.84
2022-10-11T12:04:13.955Z,18.62
2022-10-11T12:07:15.772Z,18.44
2022-10-11T12:09:54.637Z,18.64
2022-10-11T12:12:32.166Z,18.74
2022-10-11T12:15:21.712Z,18.62
2022-10-11T12:18:13.902Z,18.91
2022-10-11T12:21:02.374Z,18.86
2022-10-11T12:23:48.096Z,19.04
2022-10-11T12:26:36.685Z,19.26
2022-10-11T12:29:44.976Z,19.06
2022-10-11T12:32:55.285Z,19.10
2022-10-11T12:35:51.626Z,18.55
2022-10-11T12:38:28.897Z,18.64
2022-10-11T12:41:40.289Z,18.96
2022-10-11T12:44:22.816Z,18.89
2022-10-11T12:47:28.624Z,18.75
2022-10-11T12:50:19.373Z,18.88
2022-10-11T12:53:03.338Z,18.66
2022-10-11T12:55:48.597Z,18.76
2022-10-11T12:58:27.606Z,18.93
2022-10-11T13:01:18.309Z,18.82
2022-10-11T13:04:00.320Z,18.80
2022-10-11T13:06:38.572Z,18.86
2022-10-11T13:09:19.673Z,18.95
2022-10-11T13:11:58.632Z,18.95
2022-10-11T13:14:37.832Z,19.01
2022-10-11T13:17:18.529Z,18.83
2022-10-11T13:20:00.166Z,18.64
2022-10-11T13:22:36.765Z,18.29
2022-10-11T13:25:11.135Z,18.17
2022-10-11T13:27:45.624Z,18.40
2022-10-11T13:30:21.945Z,18.26
2022-10-11T13:32:57.763Z,18.39
2022-10-11T13:35:34.254Z,18.53
2022-10-11T13:38:10.737Z,18.49
2022-10-11T13:40:46.280Z,18.47
2022-10-11T13:43:27.842Z,18.38
2022-10-11T13:46:05.358Z,18.44
2022-10-11T13:48:42.588Z,18.46
2022-10-11T13:51:29.124Z,18.46
2022-10-11T13:54:05.088Z,18.68
2022-10-11T13:56:46.814Z,18.80
2022-10-11T13:59:22.766Z,18.70
2022-10-11T14:02:00.416Z,18.68
2022-10-11T14:04:42.675Z,18.83
2022-10-11T14:07:26.655Z,18.66
2022-10-11T14:10:00.610Z,18.66
2022-10-11T14:12:38.692Z,18.39
2022-10-11T14:15:26.542Z,18.53
2022-10-11T14:18:01.718Z,18.43
2022-10-11T14:20:42.155Z,18.34
2022-10-11T14:23:15.673Z,18.15
2022-10-11T14:25:49.781Z,18.10
2022-10-11T14:28:23.398Z,18.27
2022-10-11T14:30:57.327Z,18.29
2022-10-11T14:33:31.002Z,18.65
2022-10-11T14:36:06.964Z,18.61
2022-10-11T14:38:40.091Z,18.38
2022-10-11T14:41:13.740Z,18.63
2022-10-11T14:43:47.348Z,18.72
2022-10-11T14:46:24.116Z,18.69
2022-10-11T14:48:57.753Z,18.15
2022-10-11T14:51:36.613Z,18.34
2022-10-11T14:54:10.424Z,17.93
2022-10-11T14:56:44.117Z,17.82
2022-10-11T14:59:19.684Z,17.84
2022-10-11T15:01:54.555Z,17.55
2022-10-11T15:04:28.293Z,17.59
2022-10-11T15:07:03.991Z,17.60
2022-10-11T15:09:37.621Z,17.70
2022-10-11T15:12:11.330Z,17.71
2022-10-11T15:14:44.851Z,17.78
2022-10-11T15:17:18.558Z,18.00
2022-10-11T15:19:52.129Z,17.92
2022-10-11T15:22:27.609Z,18.09
2022-10-11T15:25:01.251Z,18.05
2022-10-11T15:27:35.015Z,18.19
2022-10-11T15:30:14.800Z,18.17
2022-10-11T15:32:49.340Z,18.05
2022-10-11T15:35:24.497Z,18.04
2022-10-11T15:38:01.710Z,18.17
2022-10-11T15:40:37.568Z,18.05
2022-10-11T15:43:11.265Z,18.14
2022-10-11T15:45:45.063Z,18.09
2022-10-11T15:48:25.892Z,18.00
2022-10-11T15:50:59.987Z,18.15
2022-10-11T15:53:35.665Z,18.23
2022-10-11T15:56:10.777Z,18.17
2022-10-11T15:58:45.109Z,18.27
2022-10-11T16:01:20.915Z,18.25
2022-10-11T16:03:54.726Z,17.93
2022-10-11T16:06:29.820Z,18.05
2022-10-11T16:09:05.183Z,17.88
2022-10-11T16:11:38.746Z,17.92
2022-10-11T16:14:12.431Z,18.03
2022-10-11T16:16:46.099Z,17.93
2022-10-11T16:19:19.931Z,17.92
2022-10-11T16:21:53.538Z,17.76
2022-10-11T16:24:28.883Z,17.78
2022-10-11T16:27:02.562Z,17.69
2022-10-11T16:29:36.345Z,17.67
2022-10-11T16:32:09.877Z,17.62
2022-10-11T16:34:43.849Z,17.72
2022-10-11T16:37:17.579Z,17.67
2022-10-11T16:39:52.572Z,17.69
2022-10-11T16:42:26.648Z,17.61
2022-10-11T16:45:00.545Z,17.52
2022-10-11T16:47:34.080Z,17.53
2022-10-11T16:50:08.855Z,17.45
2022-10-11T16:52:42.397Z,17.50
2022-10-11T16:55:17.723Z,17.44
2022-10-11T16:57:51.224Z,17.57
2022-10-11T17:00:25.020Z,17.60
2022-10-11T17:02:58.631Z,17.55
2022-10-11T17:05:32.185Z,17.44
2022-10-11T17:08:05.753Z,17.31
2022-10-11T17:10:44.667Z,17.25
2022-10-11T17:13:18.302Z,17.21
2022-10-11T17:15:51.786Z,17.13
2022-10-11T17:18:25.268Z,17.03
2022-10-11T17:21:06.130Z,16.96
2022-10-11T17:23:39.837Z,16.87
2022-10-11T17:26:18.962Z,16.80
2022-10-11T17:28:52.757Z,16.75
2022-10-11T17:31:26.346Z,16.70
2022-10-11T17:34:01.042Z,16.60
2022-10-11T17:36:35.648Z,16.36
2022-10-11T17:39:11.958Z,16.12
2022-10-11T17:41:47.477Z,15.92
2022-10-11T17:44:21.742Z,15.74
2022-10-11T17:46:56.583Z,15.56
2022-10-11T17:49:29.466Z,15.48
2022-10-11T17:52:03.281Z,15.45
2022-10-11T17:54:37.002Z,15.34
2022-10-11T17:57:12.112Z,15.36
2022-10-11T17:59:45.806Z,15.37
2022-10-11T18:02:19.442Z,15.36
2022-10-11T18:04:53.136Z,15.36
2022-10-11T18:07:26.550Z,15.26
2022-10-11T18:10:00.106Z,15.22
2022-10-11T18:12:34.343Z,15.11
2022-10-11T18:15:09.245Z,15.03
2022-10-11T18:17:42.986Z,15.00
2022-10-11T18:20:16.152Z,15.02
2022-10-11T18:22:50.827Z,14.94
2022-10-11T18:25:23.672Z,14.92
2022-10-11T18:27:57.857Z,14.87
2022-10-11T18:30:30.719Z,14.90
2022-10-11T18:33:03.602Z,14.85
2022-10-11T18:35:36.407Z,14.86
2022-10-11T18:38:10.463Z,14.87
2022-10-11T18:40:47.199Z,14.82
2022-10-11T18:43:21.661Z,14.77
2022-10-11T18:46:04.058Z,14.84
2022-10-11T18:48:37.168Z,14.79
2022-10-11T18:51:12.451Z,14.77
2022-10-11T18:53:46.209Z,14.63
2022-10-11T18:56:21.097Z,14.43
2022-10-11T18:58:57.190Z,14.26
2022-10-11T19:01:32.374Z,14.41
2022-10-11T19:04:06.586Z,14.37
2022-10-11T19:06:41.749Z,14.42
2022-10-11T19:09:17.721Z,14.53
2022-10-11T19:11:51.901Z,14.49
2022-10-11T19:14:28.432Z,14.33
2022-10-11T19:17:01.286Z,14.36
2022-10-11T19:19:34.963Z,14.48
2022-10-11T19:22:07.813Z,14.52
2022-10-11T19:24:40.844Z,14.61
2022-10-11T19:27:13.718Z,14.64
2022-10-11T19:30:48.088Z,14.70
2022-10-11T19:33:21.690Z,14.79
2022-10-11T19:35:55.766Z,14.86
2022-10-11T19:38:28.540Z,14.93
2022-10-11T19:41:01.788Z,15.02
2022-10-11T19:43:35.513Z,15.06
2022-10-11T19:46:20.203Z,15.07
2022-10-11T19:48:57.260Z,15.11
2022-10-11T19:51:35.111Z,15.15
2022-10-11T19:54:11.396Z,15.13
2022-10-11T19:56:46.092Z,15.17
2022-10-11T19:59:19.261Z,15.23
2022-10-11T20:01:53.545Z,15.22
2022-10-11T20:04:51.455Z,15.27
2022-10-11T20:07:19.329Z,15.37
2022-10-11T20:09:53.076Z,15.30
2022-10-11T20:12:29.405Z,15.29
2022-10-11T20:15:03.503Z,15.25
2022-10-11T20:17:49.576Z,15.33
2022-10-11T20:20:22.869Z,15.25
2022-10-11T20:22:55.840Z,15.27
2022-10-11T20:25:28.933Z,15.25
2022-10-11T20:28:02.556Z,15.23
2022-10-11T20:30:36.110Z,15.22
2022-10-11T20:33:11.334Z,15.13
2022-10-11T20:35:44.850Z,15.13
2022-10-11T20:38:17.787Z,15.02
2022-10-11T20:40:50.618Z,15.01
2022-10-11T20:43:24.043Z,15.02
2022-10-11T20:46:02.514Z,14.92
2022-10-11T20:48:39.118Z,14.97
2022-10-11T20:51:12.828Z,14.85
2022-10-11T20:53:46.143Z,14.88
2022-10-11T20:56:21.435Z,14.94
2022-10-11T20:58:57.001Z,14.93
2022-10-11T21:01:32.661Z,14.94
2022-10-11T21:04:09.044Z,14.83
2022-10-11T21:06:41.860Z,14.76
2022-10-11T21:09:16.877Z,14.78
2022-10-11T21:11:49.971Z,14.80
2022-10-11T21:14:23.943Z,14.86
2022-10-11T21:16:57.950Z,14.85
2022-10-11T21:19:33.070Z,14.81
2022-10-11T21:22:07.111Z,14.79
2022-10-11T21:24:40.041Z,14.81
2022-10-11T21:27:13.819Z,14.76
2022-10-11T21:29:47.558Z,14.81
2022-10-11T21:32:21.275Z,14.78
2022-10-11T21:34:56.393Z,14.67
2022-10-11T21:37:30.031Z,14.65
2022-10-11T21:40:02.981Z,14.75
2022-10-11T21:42:36.171Z,14.69
2022-10-11T21:45:10.063Z,14.65
2022-10-11T21:47:44.902Z,14.58
2022-10-11T21:50:19.278Z,14.58
2022-10-11T21:52:52.207Z,14.52
2022-10-11T21:55:26.166Z,14.43
2022-10-11T21:57:59.794Z,14.43
2022-10-11T22:00:33.509Z,14.40
2022-10-11T22:03:07.030Z,14.30
2022-10-11T22:05:45.800Z,14.29
2022-10-11T22:08:19.750Z,14.30
2022-10-11T22:10:58.178Z,14.24
2022-10-11T22:13:33.567Z,14.24
2022-10-11T22:16:09.046Z,14.21
2022-10-11T22:18:43.194Z,14.10
2022-10-11T22:21:24.120Z,14.19
2022-10-11T22:23:57.723Z,14.08
2022-10-11T22:26:32.035Z,14.01
2022-10-11T22:29:04.989Z,14.00
2022-10-11T22:31:39.122Z,14.06
2022-10-11T22:34:11.936Z,14.06
2022-10-11T22:36:47.909Z,13.99
2022-10-11T22:39:21.594Z,13.99
2022-10-11T22:41:55.938Z,14.03
2022-10-11T22:44:29.552Z,14.03
2022-10-11T22:47:03.245Z,14.06
2022-10-11T22:49:36.507Z,14.09
2022-10-11T22:52:11.662Z,14.09
2022-10-11T22:54:44.520Z,14.08
2022-10-11T22:57:18.287Z,14.07
2022-10-11T22:59:51.982Z,14.08
2022-10-11T23:02:25.731Z,14.08
2022-10-11T23:04:58.797Z,14.10
2022-10-11T23:07:34.397Z,14.12
2022-10-11T23:10:08.229Z,14.04
2022-10-11T23:12:41.935Z,14.00
2022-10-11T23:15:15.734Z,13.90
2022-10-11T23:17:49.601Z,13.91
2022-10-11T23:20:23.173Z,13.95
2022-10-11T23:22:58.489Z,13.95
2022-10-11T23:25:31.419Z,14.04
2022-10-11T23:28:05.064Z,14.13
2022-10-11T23:30:41.121Z,14.14
2022-10-11T23:33:15.005Z,14.21
2022-10-11T23:35:48.776Z,14.24
2022-10-11T23:38:23.200Z,14.26
2022-10-11T23:40:56.172Z,14.37
2022-10-11T23:43:29.915Z,14.38
2022-10-11T23:46:03.501Z,14.46
2022-10-11T23:48:37.259Z,14.42
2022-10-11T23:51:11.098Z,14.46
2022-10-11T23:53:45.503Z,14.46
2022-10-11T23:56:18.636Z,14.46
2022-10-11T23:58:52.398Z,14.40
